Time;durP1;ratioP1;P1;durP2;ratioP2;P2;SDS_P1;SDS_P2;PMS_P1;PMS_P2;Temp;Humidity;BMP_temperature;BMP_pressure;BME280_temperature;BME280_humidity;BME280_pressure;Samples;Min_cycle;Max_cycle;Signal;HPM_P1;HPM_P2
2023/04/08 00:01:41;;;;;;;11.23;8.67;;;5.60;99.90;;;;;;6206082;23;20212;-82
2023/04/08 00:04:08;;;;;;;10.10;8.10;;;5.30;99.90;;;;;;6208091;23;20154;-82
2023/04/08 00:06:34;;;;;;;10.93;8.93;;;5.20;1.00;;;;;;6206499;23;20196;-82
2023/04/08 00:08:59;;;;;;;11.03;8.87;;;5.10;1.00;;;;;;6205945;23;20182;-82
2023/04/08 00:11:25;;;;;;;11.73;9.43;;;5.00;1.00;;;;;;6208396;23;20156;-82
2023/04/08 00:13:51;;;;;;;10.83;8.87;;;5.00;1.00;;;;;;6206225;23;20655;-82
2023/04/08 00:16:16;;;;;;;9.63;8.30;;;4.90;6.60;;;;;;6206333;23;20192;-81
2023/04/08 00:18:42;;;;;;;8.87;7.80;;;5.30;99.40;;;;;;6205490;23;20205;-82
2023/04/08 00:21:08;;;;;;;10.97;8.27;;;5.10;99.90;;;;;;6206498;23;20200;-82
2023/04/08 00:23:33;;;;;;;9.47;8.33;;;5.10;99.90;;;;;;6207950;23;20228;-82
2023/04/08 00:25:59;;;;;;;10.47;8.07;;;5.00;99.90;;;;;;6206185;23;20237;-82
2023/04/08 00:28:24;;;;;;;10.37;8.30;;;5.10;99.90;;;;;;6205882;23;20166;-82
2023/04/08 00:30:52;;;;;;;9.87;8.43;;;5.10;99.90;;;;;;6205865;23;20182;-82
2023/04/08 00:33:17;;;;;;;11.63;8.70;;;5.10;99.90;;;;;;6206121;23;20160;-82
2023/04/08 00:35:43;;;;;;;8.33;7.20;;;5.20;25.90;;;;;;6205921;23;20186;-82
2023/04/08 00:38:09;;;;;;;9.10;7.70;;;5.30;91.80;;;;;;6205851;23;20186;-82
2023/04/08 00:40:34;;;;;;;10.00;7.97;;;5.30;1.00;;;;;;6205591;23;20181;-82
2023/04/08 00:43:00;;;;;;;10.03;8.77;;;5.40;1.00;;;;;;6206270;23;20158;-82
2023/04/08 00:45:26;;;;;;;10.87;8.33;;;5.30;1.00;;;;;;6205976;23;20211;-82
2023/04/08 00:47:51;;;;;;;11.50;8.80;;;5.10;99.90;;;;;;6207252;23;20158;-82
2023/04/08 00:50:18;;;;;;;10.27;7.97;;;5.00;99.90;;;;;;6207043;23;20676;-82
2023/04/08 00:52:43;;;;;;;10.00;8.70;;;5.10;1.00;;;;;;6205977;23;20159;-82
2023/04/08 00:55:09;;;;;;;11.53;8.73;;;5.10;99.90;;;;;;6205865;23;20158;-82
2023/04/08 00:57:35;;;;;;;14.53;10.97;;;5.10;99.90;;;;;;6205671;23;20186;-82
2023/04/08 01:00:02;;;;;;;11.47;9.87;;;5.10;99.90;;;;;;6207224;23;20256;-81
2023/04/08 01:02:42;;;;;;;11.57;9.57;;;5.20;99.90;;;;;;6207470;23;20752;-81
2023/04/08 01:05:29;;;;;;;12.23;9.40;;;5.20;99.90;;;;;;6206161;23;20773;-81
2023/04/08 01:07:56;;;;;;;12.87;9.80;;;5.10;99.90;;;;;;6205699;23;20589;-82
2023/04/08 01:10:27;;;;;;;11.20;9.77;;;5.00;1.00;;;;;;6205626;23;20233;-83
2023/04/08 01:12:56;;;;;;;11.50;8.90;;;5.10;1.00;;;;;;6205484;23;20155;-82
2023/04/08 01:15:25;;;;;;;11.20;9.37;;;5.10;1.00;;;;;;6205717;23;20162;-82
2023/04/08 01:17:53;;;;;;;11.73;9.37;;;5.10;99.90;;;;;;6206011;23;20224;-82
2023/04/08 01:20:20;;;;;;;10.83;9.40;;;5.20;99.90;;;;;;6205666;23;20200;-82
2023/04/08 01:23:00;;;;;;;11.13;8.53;;;5.10;1.00;;;;;;6205656;23;20154;-82
2023/04/08 01:25:31;;;;;;;11.27;9.37;;;5.10;1.00;;;;;;6207021;23;20155;-82
2023/04/08 01:27:58;;;;;;;10.67;9.03;;;5.10;1.00;;;;;;6205418;23;20922;-82
2023/04/08 01:30:25;;;;;;;11.60;9.43;;;5.20;1.00;;;;;;6206536;23;20178;-82
2023/04/08 01:32:54;;;;;;;12.30;9.67;;;5.20;99.90;;;;;;6205382;23;20193;-82
2023/04/08 01:35:20;;;;;;;12.83;9.47;;;5.10;1.00;;;;;;6205444;23;20158;-82
2023/04/08 01:37:50;;;;;;;12.13;10.17;;;5.00;1.00;;;;;;6204926;23;20248;-81
2023/04/08 01:40:18;;;;;;;11.40;10.03;;;5.00;1.00;;;;;;6206816;23;20194;-82
2023/04/08 01:42:47;;;;;;;12.20;10.40;;;4.90;1.00;;;;;;6206894;23;20182;-81
2023/04/08 01:45:14;;;;;;;11.20;9.70;;;5.00;1.00;;;;;;6205347;23;20185;-82
2023/04/08 01:47:41;;;;;;;11.10;9.93;;;5.10;1.00;;;;;;6205465;23;20158;-82
2023/04/08 01:50:08;;;;;;;12.27;9.63;;;5.10;1.00;;;;;;6204894;23;20727;-82
2023/04/08 01:52:38;;;;;;;10.00;9.00;;;5.20;99.90;;;;;;6206984;23;20233;-82
2023/04/08 01:55:04;;;;;;;10.63;9.37;;;5.20;99.90;;;;;;6206905;23;20257;-82
2023/04/08 01:57:33;;;;;;;11.57;9.47;;;5.30;99.90;;;;;;6205516;23;20633;-83
2023/04/08 02:00:03;;;;;;;10.87;8.80;;;5.40;99.90;;;;;;6206440;23;20194;-82
2023/04/08 02:02:30;;;;;;;11.43;9.77;;;5.50;1.00;;;;;;6205303;23;20664;-82
2023/04/08 02:04:56;;;;;;;16.53;14.50;;;5.60;1.00;;;;;;6205147;23;20158;-82
2023/04/08 02:07:21;;;;;;;18.37;15.67;;;5.60;1.00;;;;;;6207170;23;20217;-82
2023/04/08 02:09:47;;;;;;;17.80;14.60;;;5.60;1.00;;;;;;6204892;23;20524;-82
2023/04/08 02:12:12;;;;;;;16.30;13.83;;;5.40;1.00;;;;;;6205392;23;20246;-82
2023/04/08 02:14:38;;;;;;;19.93;15.40;;;5.30;99.90;;;;;;6205281;23;20208;-81
2023/04/08 02:17:12;;;;;;;15.80;13.00;;;5.20;99.90;;;;;;6205390;23;20189;-82
2023/04/08 02:19:45;;;;;;;22.37;16.83;;;5.20;1.00;;;;;;6204752;23;20261;-82
2023/04/08 02:22:23;;;;;;;17.83;14.37;;;5.10;1.00;;;;;;6207019;23;20131;-82
2023/04/08 02:24:49;;;;;;;18.53;16.03;;;5.00;99.90;;;;;;6207168;23;20150;-82
2023/04/08 02:27:16;;;;;;;17.80;14.53;;;5.00;99.90;;;;;;6207053;23;20162;-82
2023/04/08 02:29:42;;;;;;;21.27;15.93;;;5.00;1.00;;;;;;6208574;23;20171;-81
2023/04/08 02:32:10;;;;;;;20.00;15.37;;;4.90;11.50;;;;;;6207070;23;20165;-81
2023/04/08 02:34:39;;;;;;;21.30;16.87;;;4.90;1.00;;;;;;6208396;23;20147;-82
2023/04/08 02:37:05;;;;;;;19.07;15.50;;;4.90;1.00;;;;;;6206971;23;20597;-81
2023/04/08 02:39:32;;;;;;;20.43;14.43;;;5.00;5.30;;;;;;6206735;23;20209;-82
2023/04/08 02:41:57;;;;;;;16.40;13.93;;;5.00;1.00;;;;;;6208411;23;20607;-83
2023/04/08 02:44:23;;;;;;;18.73;14.27;;;5.00;99.90;;;;;;6207035;23;20154;-83
2023/04/08 02:46:49;;;;;;;22.23;15.57;;;5.10;1.00;;;;;;6206878;23;20163;-83
2023/04/08 02:49:15;;;;;;;19.57;16.43;;;5.00;1.00;;;;;;6206660;23;20865;-82
2023/04/08 02:51:40;;;;;;;18.40;14.60;;;5.00;99.90;;;;;;6206838;23;20213;-83
2023/04/08 02:54:06;;;;;;;18.87;14.27;;;4.90;99.90;;;;;;6206904;23;20170;-84
2023/04/08 02:56:31;;;;;;;21.20;15.13;;;5.00;1.00;;;;;;6206862;23;20189;-82
2023/04/08 02:58:57;;;;;;;20.77;15.67;;;4.90;1.00;;;;;;6211401;22;20204;-83
2023/04/08 03:01:22;;;;;;;21.93;16.27;;;4.90;67.80;;;;;;6211788;23;20158;-82
2023/04/08 03:03:48;;;;;;;19.27;15.53;;;4.90;99.90;;;;;;6211756;23;20161;-82
2023/04/08 03:06:13;;;;;;;21.90;16.23;;;5.00;1.00;;;;;;6211712;23;20161;-80
2023/04/08 03:08:39;;;;;;;23.17;17.10;;;5.00;1.00;;;;;;6211363;22;20598;-83
2023/04/08 03:11:04;;;;;;;18.73;15.23;;;5.10;1.00;;;;;;6212196;23;20487;-82
2023/04/08 03:13:30;;;;;;;21.70;15.30;;;5.20;1.00;;;;;;6211544;23;20161;-82
2023/04/08 03:15:56;;;;;;;21.97;15.23;;;5.20;99.90;;;;;;6212085;23;20527;-83
2023/04/08 03:18:22;;;;;;;20.87;15.83;;;5.20;1.00;;;;;;6238051;23;20518;-82
2023/04/08 03:20:47;;;;;;;23.07;16.17;;;5.10;1.00;;;;;;6211425;23;20697;-82
2023/04/08 03:23:13;;;;;;;20.70;16.37;;;5.00;99.90;;;;;;6211211;23;20150;-82
2023/04/08 03:25:38;;;;;;;18.07;13.37;;;4.90;64.70;;;;;;6211255;23;20162;-83
2023/04/08 03:28:04;;;;;;;21.90;15.33;;;5.00;1.00;;;;;;6238022;23;20188;-82
2023/04/08 03:30:30;;;;;;;18.63;14.83;;;5.00;99.90;;;;;;6211251;23;20212;-82
2023/04/08 03:32:55;;;;;;;22.60;15.87;;;5.00;1.00;;;;;;6238332;23;20208;-82
2023/04/08 03:35:21;;;;;;;20.03;15.00;;;5.10;1.00;;;;;;6210920;23;21061;-82
2023/04/08 03:37:47;;;;;;;19.00;14.77;;;5.20;99.90;;;;;;6211127;23;20905;-83
2023/04/08 03:40:13;;;;;;;21.63;14.53;;;5.10;1.00;;;;;;6210864;23;20200;-83
2023/04/08 03:42:38;;;;;;;18.40;14.67;;;5.10;23.10;;;;;;6238456;23;20165;-82
2023/04/08 03:45:04;;;;;;;16.53;13.27;;;5.10;94.70;;;;;;6211091;23;20999;-82
2023/04/08 03:47:30;;;;;;;17.30;12.97;;;5.10;1.00;;;;;;6211191;23;20511;-82
2023/04/08 03:49:55;;;;;;;21.17;15.47;;;5.20;1.00;;;;;;6236264;22;20173;-82
2023/04/08 03:52:21;;;;;;;20.23;15.57;;;5.30;1.00;;;;;;6211184;23;20173;-82
2023/04/08 03:54:47;;;;;;;22.37;15.73;;;5.30;99.90;;;;;;6210999;23;20161;-82
2023/04/08 03:57:13;;;;;;;20.43;15.33;;;5.20;1.00;;;;;;6211018;23;20154;-82
2023/04/08 03:59:39;;;;;;;19.00;15.10;;;5.20;99.90;;;;;;6209206;23;20197;-82
2023/04/08 04:02:06;;;;;;;22.00;14.67;;;5.10;1.00;;;;;;6208791;23;20177;-82
2023/04/08 04:04:32;;;;;;;21.40;15.23;;;5.10;99.90;;;;;;6208694;23;20164;-82
2023/04/08 04:06:58;;;;;;;20.13;14.50;;;5.10;99.90;;;;;;6208843;23;20542;-82
2023/04/08 04:09:24;;;;;;;20.80;14.40;;;5.20;99.90;;;;;;6208729;23;20188;-82
2023/04/08 04:11:49;;;;;;;19.50;14.27;;;5.10;99.90;;;;;;6209109;23;20512;-82
2023/04/08 04:14:15;;;;;;;20.87;14.37;;;5.10;99.90;;;;;;6209625;23;20208;-82
2023/04/08 04:16:40;;;;;;;17.67;13.93;;;5.20;99.90;;;;;;6208893;23;20562;-82
2023/04/08 04:19:06;;;;;;;20.77;14.23;;;5.20;99.90;;;;;;6208156;23;20902;-83
2023/04/08 04:21:32;;;;;;;20.63;14.53;;;5.20;99.90;;;;;;6235916;23;20181;-82
2023/04/08 04:23:57;;;;;;;23.83;15.97;;;5.20;90.60;;;;;;6209118;23;20178;-82
2023/04/08 04:26:23;;;;;;;19.80;14.13;;;5.20;1.00;;;;;;6211136;23;20158;-82
2023/04/08 04:28:48;;;;;;;22.23;14.80;;;5.10;99.90;;;;;;6210084;22;20299;-83
2023/04/08 04:31:22;;;;;;;20.43;13.80;;;5.10;99.90;;;;;;6210374;23;20198;-83
2023/04/08 04:33:48;;;;;;;19.90;16.15;;;5.10;99.90;;;;;;6211759;23;20396;-82
2023/04/08 04:36:14;;;;;;;21.63;16.10;;;4.90;99.90;;;;;;6237603;23;20564;-82
2023/04/08 04:38:41;;;;;;;20.90;17.48;;;5.00;1.00;;;;;;6208931;22;20478;-82
2023/04/08 04:41:07;;;;;;;21.50;15.50;;;5.00;16.60;;;;;;6210841;23;20164;-82
2023/04/08 04:43:32;;;;;;;20.43;15.60;;;5.10;30.90;;;;;;6210781;23;20162;-82
2023/04/08 04:45:58;;;;;;;21.07;15.30;;;5.10;99.90;;;;;;6210740;23;20703;-83
2023/04/08 04:48:24;;;;;;;18.97;13.80;;;5.20;1.00;;;;;;6210547;23;20913;-82
2023/04/08 04:50:56;;;;;;;19.23;13.77;;;5.20;99.90;;;;;;6237607;22;20220;-82
2023/04/08 04:53:22;;;;;;;19.80;13.97;;;5.20;99.90;;;;;;6210685;23;20208;-83
2023/04/08 04:55:48;;;;;;;18.93;14.07;;;5.30;99.90;;;;;;6210862;23;20510;-82
2023/04/08 04:58:14;;;;;;;21.10;14.37;;;5.20;99.90;;;;;;6206802;23;20235;-82
2023/04/08 05:00:39;;;;;;;18.80;14.13;;;5.10;1.00;;;;;;6207060;23;20174;-82
2023/04/08 05:03:05;;;;;;;23.37;15.77;;;5.20;99.90;;;;;;6207400;23;20158;-82
2023/04/08 05:05:31;;;;;;;20.77;14.97;;;5.20;99.90;;;;;;6205551;23;20257;-82
2023/04/08 05:07:56;;;;;;;20.77;15.33;;;5.20;99.90;;;;;;6205687;23;20158;-82
2023/04/08 05:10:22;;;;;;;20.63;13.80;;;5.20;99.90;;;;;;6206777;23;20178;-83
2023/04/08 05:12:47;;;;;;;22.30;13.93;;;5.20;1.00;;;;;;6205763;23;20815;-82
2023/04/08 05:15:13;;;;;;;22.40;15.13;;;5.20;1.00;;;;;;6206979;23;20253;-82
2023/04/08 05:17:39;;;;;;;22.13;14.30;;;5.10;99.90;;;;;;6205367;23;20190;-83
2023/04/08 05:20:05;;;;;;;20.70;14.10;;;5.10;1.00;;;;;;6206447;23;20649;-82
2023/04/08 05:22:31;;;;;;;22.57;15.03;;;5.00;1.00;;;;;;6205380;23;20548;-83
2023/04/08 05:24:56;;;;;;;23.93;14.83;;;5.00;1.00;;;;;;6206928;23;20209;-82
2023/04/08 05:27:22;;;;;;;21.50;15.13;;;4.90;99.90;;;;;;6207164;23;20151;-82
2023/04/08 05:29:47;;;;;;;24.00;15.73;;;5.00;99.90;;;;;;6205507;23;20261;-84
2023/04/08 05:32:13;;;;;;;25.07;16.17;;;4.90;1.00;;;;;;6210953;23;20162;-83
2023/04/08 05:34:39;;;;;;;29.40;16.27;;;4.80;1.00;;;;;;6210176;23;20517;-84
2023/04/08 05:37:04;;;;;;;26.87;16.77;;;4.90;99.90;;;;;;6209457;23;20162;-84
2023/04/08 05:39:30;;;;;;;27.03;16.40;;;5.00;99.90;;;;;;6210957;23;20523;-84
2023/04/08 05:41:55;;;;;;;24.50;15.83;;;5.00;99.90;;;;;;6209656;23;20166;-84
2023/04/08 05:44:21;;;;;;;24.53;15.83;;;5.00;99.90;;;;;;6209824;23;20142;-84
2023/04/08 05:46:46;;;;;;;20.70;13.90;;;5.10;99.90;;;;;;6209465;23;20234;-84
2023/04/08 05:49:12;;;;;;;22.50;14.47;;;5.10;1.00;;;;;;6211163;23;20178;-82
2023/04/08 05:51:38;;;;;;;24.73;15.20;;;5.00;1.00;;;;;;6208352;23;20174;-81
2023/04/08 05:54:04;;;;;;;23.93;14.97;;;5.00;1.00;;;;;;6204096;23;20162;-81
2023/04/08 05:56:31;;;;;;;23.77;13.77;;;5.10;1.00;;;;;;6205046;23;20158;-82
2023/04/08 05:58:57;;;;;;;24.70;15.20;;;5.10;1.00;;;;;;6217542;23;20208;-82
2023/04/08 06:01:22;;;;;;;25.03;15.43;;;5.10;1.00;;;;;;6238947;23;20146;-83
2023/04/08 06:03:48;;;;;;;23.77;15.00;;;5.10;1.00;;;;;;6212180;23;20244;-82
2023/04/08 06:06:13;;;;;;;21.23;13.37;;;5.00;99.90;;;;;;6239252;23;20531;-82
2023/04/08 06:08:39;;;;;;;22.10;13.87;;;5.20;1.00;;;;;;6211646;23;20204;-83
2023/04/08 06:11:06;;;;;;;23.07;14.37;;;5.20;1.00;;;;;;6212376;23;20169;-82
2023/04/08 06:13:31;;;;;;;23.20;14.97;;;5.20;1.00;;;;;;6238722;23;20182;-82
2023/04/08 06:15:58;;;;;;;24.03;14.40;;;5.30;1.00;;;;;;6239098;23;20491;-82
2023/04/08 06:18:24;;;;;;;26.60;14.30;;;5.30;99.90;;;;;;6211859;23;20185;-82
2023/04/08 06:20:49;;;;;;;22.10;13.93;;;5.30;1.00;;;;;;6238753;23;20193;-82
2023/04/08 06:23:15;;;;;;;23.03;14.13;;;5.30;1.00;;;;;;6212322;23;20157;-82
2023/04/08 06:25:41;;;;;;;19.63;13.37;;;5.30;1.00;;;;;;6212014;23;20211;-83
2023/04/08 06:28:06;;;;;;;20.80;14.30;;;5.20;99.90;;;;;;6212098;23;20605;-82
2023/04/08 06:30:32;;;;;;;23.30;13.93;;;5.20;1.00;;;;;;6238248;23;20173;-82
2023/04/08 06:32:57;;;;;;;22.43;13.73;;;5.20;99.90;;;;;;6212084;23;20162;-82
2023/04/08 06:35:23;;;;;;;22.47;14.33;;;5.20;99.90;;;;;;6211885;23;20159;-83
2023/04/08 06:37:49;;;;;;;21.23;14.30;;;5.20;99.90;;;;;;6212011;23;20258;-82
2023/04/08 06:40:15;;;;;;;21.17;13.27;;;5.30;99.90;;;;;;6211672;23;20174;-82
2023/04/08 06:42:42;;;;;;;20.07;14.00;;;5.30;1.00;;;;;;6212012;23;20538;-82
2023/04/08 06:45:08;;;;;;;20.73;12.87;;;5.40;99.90;;;;;;6212101;23;20536;-82
2023/04/08 06:47:33;;;;;;;20.13;13.83;;;5.40;1.00;;;;;;6235886;23;20153;-83
2023/04/08 06:49:59;;;;;;;18.53;12.20;;;5.50;1.00;;;;;;6209531;23;20182;-83
2023/04/08 06:52:25;;;;;;;18.47;12.20;;;5.50;1.00;;;;;;6209501;23;20171;-84
2023/04/08 06:54:50;;;;;;;19.63;12.67;;;5.60;1.00;;;;;;6236764;23;20663;-84
2023/04/08 06:57:16;;;;;;;14.57;11.13;;;5.70;1.00;;;;;;6207946;23;20165;-84
2023/04/08 06:59:41;;;;;;;16.63;11.57;;;5.70;99.90;;;;;;6206304;23;20248;-84
2023/04/08 07:02:08;;;;;;;16.87;11.90;;;5.70;99.90;;;;;;6207559;23;20197;-84
2023/04/08 07:04:33;;;;;;;15.57;11.37;;;5.70;1.00;;;;;;6206287;23;20149;-83
2023/04/08 07:06:59;;;;;;;15.83;11.63;;;5.70;99.90;;;;;;6208934;23;20158;-84
2023/04/08 07:09:25;;;;;;;17.23;11.90;;;5.70;99.90;;;;;;6207920;23;20181;-84
2023/04/08 07:11:50;;;;;;;18.80;12.53;;;5.70;74.50;;;;;;6206972;23;20212;-84
2023/04/08 07:14:16;;;;;;;13.30;10.13;;;5.70;1.00;;;;;;6207038;23;20162;-84
2023/04/08 07:16:41;;;;;;;14.23;10.30;;;5.70;1.00;;;;;;6208794;23;20158;-84
2023/04/08 07:19:07;;;;;;;13.23;10.80;;;5.80;1.00;;;;;;6206513;23;20190;-83
2023/04/08 07:21:32;;;;;;;12.30;9.60;;;5.80;1.00;;;;;;6208619;23;20154;-83
2023/04/08 07:23:58;;;;;;;10.77;9.03;;;5.80;99.90;;;;;;6208745;23;20162;-84
2023/04/08 07:26:23;;;;;;;11.17;8.43;;;5.80;1.00;;;;;;6207166;23;20177;-85
2023/04/08 07:28:50;;;;;;;11.70;9.53;;;5.80;1.00;;;;;;6207872;23;20170;-84
2023/04/08 07:31:17;;;;;;;11.33;8.80;;;5.80;99.90;;;;;;6205124;23;20587;-84
2023/04/08 07:33:44;;;;;;;10.73;8.73;;;5.80;99.90;;;;;;6206227;23;20170;-83
2023/04/08 07:36:11;;;;;;;11.97;8.90;;;5.80;99.90;;;;;;6204585;23;20186;-84
2023/04/08 07:38:37;;;;;;;11.07;8.90;;;5.80;21.10;;;;;;6205065;23;20422;-85
2023/04/08 07:41:03;;;;;;;12.13;9.10;;;5.90;99.90;;;;;;6205878;23;20151;-83
2023/04/08 07:43:31;;;;;;;11.67;9.80;;;5.90;99.90;;;;;;6206102;23;20205;-82
2023/04/08 07:46:02;;;;;;;13.70;10.13;;;6.00;99.90;;;;;;6207011;23;20438;-82
2023/04/08 07:48:28;;;;;;;14.67;11.33;;;5.90;99.90;;;;;;6202874;23;20185;-83
2023/04/08 07:50:54;;;;;;;17.77;11.10;;;5.90;99.90;;;;;;6206251;23;20229;-81
2023/04/08 07:53:20;;;;;;;16.67;12.27;;;5.90;99.90;;;;;;6202931;23;20673;-80
2023/04/08 07:55:46;;;;;;;18.10;12.47;;;5.80;99.90;;;;;;6200451;23;20194;-80
2023/04/08 07:58:11;;;;;;;17.43;13.03;;;5.90;99.90;;;;;;6201803;23;20174;-80
2023/04/08 08:00:37;;;;;;;16.00;13.10;;;5.90;99.90;;;;;;6202560;23;20220;-80
2023/04/08 08:03:02;;;;;;;20.13;13.93;;;5.80;99.90;;;;;;6204283;23;20147;-81
2023/04/08 08:05:28;;;;;;;21.37;14.57;;;5.90;99.90;;;;;;6202840;23;20157;-81
2023/04/08 08:07:53;;;;;;;16.63;13.17;;;6.30;1.00;;;;;;6203905;23;20146;-80
2023/04/08 08:10:19;;;;;;;17.93;13.50;;;6.00;1.00;;;;;;6201648;23;20248;-82
2023/04/08 08:12:44;;;;;;;18.30;13.33;;;6.00;1.00;;;;;;6204766;23;20162;-80
2023/04/08 08:15:10;;;;;;;16.17;12.50;;;6.00;1.00;;;;;;6205287;23;20165;-80
2023/04/08 08:17:35;;;;;;;17.40;12.53;;;6.00;99.90;;;;;;6204512;23;20178;-80
2023/04/08 08:20:03;;;;;;;18.13;13.47;;;6.00;99.90;;;;;;6204469;23;20180;-80
2023/04/08 08:22:28;;;;;;;18.40;13.87;;;6.00;99.90;;;;;;6203084;23;20212;-80
2023/04/08 08:24:55;;;;;;;19.67;14.40;;;5.90;99.90;;;;;;6202667;23;20221;-80
2023/04/08 08:27:21;;;;;;;19.17;13.80;;;5.90;1.00;;;;;;6203171;23;20167;-80
2023/04/08 08:29:47;;;;;;;18.83;13.97;;;5.90;1.00;;;;;;6204003;23;20178;-80
2023/04/08 08:32:12;;;;;;;19.80;13.97;;;6.00;1.00;;;;;;6202652;23;20193;-80
2023/04/08 08:34:38;;;;;;;18.17;13.13;;;6.10;1.00;;;;;;6204824;23;20154;-80
2023/04/08 08:37:03;;;;;;;19.90;13.77;;;6.10;99.90;;;;;;6202844;23;20177;-79
2023/04/08 08:39:29;;;;;;;18.80;13.87;;;6.20;1.00;;;;;;6204433;23;20701;-80
2023/04/08 08:41:55;;;;;;;18.87;13.90;;;6.20;1.00;;;;;;6202664;23;20162;-80
2023/04/08 08:44:21;;;;;;;19.57;13.90;;;6.20;1.00;;;;;;6202841;23;20237;-81
2023/04/08 08:46:47;;;;;;;17.50;13.43;;;6.20;1.00;;;;;;6201708;23;20159;-80
2023/04/08 08:49:13;;;;;;;22.23;13.37;;;6.20;1.00;;;;;;6202161;23;20178;-80
2023/04/08 08:51:45;;;;;;;19.93;14.23;;;6.20;1.00;;;;;;6202513;23;20176;-80
2023/04/08 08:54:10;;;;;;;22.23;15.33;;;6.10;99.90;;;;;;6202076;23;20158;-80
2023/04/08 08:56:36;;;;;;;21.37;14.20;;;6.10;99.90;;;;;;6202431;23;20172;-81
2023/04/08 08:59:01;;;;;;;26.73;16.57;;;6.20;1.00;;;;;;6204123;23;20190;-80
2023/04/08 09:01:36;;;;;;;24.40;16.37;;;6.30;1.00;;;;;;6203996;23;20860;-80
2023/04/08 09:04:10;;;;;;;24.60;16.63;;;6.20;1.00;;;;;;6202841;23;20181;-80
2023/04/08 09:06:37;;;;;;;24.70;16.43;;;6.20;1.00;;;;;;6204148;23;20573;-80
2023/04/08 09:09:09;;;;;;;24.87;16.80;;;6.20;1.00;;;;;;6203598;23;20630;-80
2023/04/08 09:11:36;;;;;;;23.83;16.40;;;6.20;1.00;;;;;;6204354;23;20216;-81
2023/04/08 09:14:01;;;;;;;23.73;17.27;;;6.30;1.00;;;;;;6201514;23;20158;-81
2023/04/08 09:16:29;;;;;;;27.27;17.60;;;6.20;1.00;;;;;;6203119;23;20162;-81
2023/04/08 09:19:07;;;;;;;25.20;17.23;;;6.10;1.00;;;;;;6204955;23;20182;-80
2023/04/08 09:21:33;;;;;;;24.90;17.27;;;5.90;20.20;;;;;;6204975;23;20170;-79
2023/04/08 09:23:59;;;;;;;27.33;17.97;;;6.00;1.00;;;;;;6204131;23;20150;-79
2023/04/08 09:26:26;;;;;;;27.93;17.27;;;5.90;1.00;;;;;;6201989;23;20173;-79
2023/04/08 09:29:08;;;;;;;22.87;17.00;;;5.90;99.90;;;;;;6200762;23;20175;-79
2023/04/08 09:31:37;;;;;;;25.60;17.37;;;7.20;99.90;;;;;;6201548;23;20707;-79
2023/04/08 09:34:31;;;;;;;22.57;15.47;;;6.20;1.00;;;;;;6202638;23;20205;-78
2023/04/08 09:36:56;;;;;;;21.73;15.60;;;6.20;12.90;;;;;;6196096;23;20621;-79
2023/04/08 09:39:22;;;;;;;21.00;14.50;;;6.20;1.00;;;;;;6198280;23;20190;-79
2023/04/08 09:41:49;;;;;;;18.53;13.80;;;6.30;99.90;;;;;;6199052;23;20154;-79
2023/04/08 09:44:17;;;;;;;19.07;13.17;;;6.50;1.00;;;;;;6199365;23;20218;-79
2023/04/08 09:46:49;;;;;;;17.80;13.40;;;6.60;99.90;;;;;;6203144;23;20188;-81
2023/04/08 09:49:25;;;;;;;19.63;13.60;;;6.70;1.00;;;;;;6205243;23;20189;-78
2023/04/08 09:52:14;;;;;;;16.80;12.50;;;6.90;1.00;;;;;;6206619;23;20134;-80
2023/04/08 09:55:01;;;;;;;17.67;13.00;;;6.70;99.90;;;;;;6201668;23;20514;-79
2023/04/08 09:57:42;;;;;;;16.98;12.90;;;6.90;99.90;;;;;;6204990;23;20374;-83
2023/04/08 10:00:16;;;;;;;31.38;15.27;;;6.90;99.00;;;;;;6204747;23;20472;-78
2023/04/08 10:02:56;;;;;;;86.90;23.47;;;6.80;17.90;;;;;;6202693;23;20382;-79
2023/04/08 10:05:23;;;;;;;42.80;15.53;;;7.00;1.00;;;;;;6203145;23;20163;-80
2023/04/08 10:07:49;;;;;;;25.47;13.23;;;7.20;99.90;;;;;;6204878;23;20173;-78
2023/04/08 10:10:15;;;;;;;26.67;13.63;;;7.20;99.90;;;;;;6206658;23;20182;-84
2023/04/08 10:12:42;;;;;;;28.60;13.93;;;7.20;99.90;;;;;;6206393;23;20237;-84
2023/04/08 10:15:28;;;;;;;19.90;12.70;;;7.20;99.90;;;;;;6205128;23;20594;-87
2023/04/08 10:18:19;;;;;;;20.13;13.73;;;7.20;99.90;;;;;;6205002;23;20177;-82
2023/04/08 10:20:46;;;;;;;21.07;14.23;;;7.10;99.90;;;;;;6205393;23;20185;-85
2023/04/08 10:23:13;;;;;;;23.33;15.60;;;7.20;1.00;;;;;;6210017;23;20162;-84
2023/04/08 10:25:41;;;;;;;23.53;16.10;;;6.80;1.00;;;;;;6211736;23;20198;-84
2023/04/08 10:28:16;;;;;;;21.47;13.67;;;6.70;99.90;;;;;;6213397;23;20638;-85
2023/04/08 10:30:42;;;;;;;19.20;13.37;;;6.90;99.90;;;;;;6211047;23;20564;-86
2023/04/08 10:33:24;;;;;;;22.90;15.67;;;7.10;99.90;;;;;;6211306;23;20754;-82
2023/04/08 10:35:54;;;;;;;23.83;15.13;;;6.90;99.90;;;;;;6212810;23;20190;-84
2023/04/08 10:38:20;;;;;;;22.43;15.23;;;8.00;1.00;;;;;;6210678;23;20186;-85
2023/04/08 10:40:48;;;;;;;19.27;14.07;;;6.90;1.00;;;;;;6209373;23;20525;-86
2023/04/08 10:43:14;;;;;;;18.27;13.00;;;7.10;1.00;;;;;;6206998;23;20178;-87
2023/04/08 10:45:41;;;;;;;18.00;12.97;;;7.20;99.90;;;;;;6206151;23;20154;-87
2023/04/08 10:48:16;;;;;;;19.57;13.37;;;7.20;1.00;;;;;;6203588;23;20154;-85
2023/04/08 10:50:43;;;;;;;14.77;11.47;;;7.30;1.00;;;;;;6202180;23;20213;-85
2023/04/08 10:53:10;;;;;;;14.23;10.93;;;7.40;1.00;;;;;;6203000;23;20212;-85
2023/04/08 10:55:35;;;;;;;13.60;10.77;;;7.30;99.90;;;;;;6203029;23;20465;-85
2023/04/08 10:58:09;;;;;;;17.77;11.97;;;7.40;99.90;;;;;;6203039;23;20244;-85
2023/04/08 11:00:39;;;;;;;13.07;10.03;;;7.50;99.90;;;;;;6203999;23;20526;-86
2023/04/08 11:03:10;;;;;;;18.10;11.80;;;7.40;99.90;;;;;;6203668;23;20610;-80
2023/04/08 11:05:37;;;;;;;13.07;10.27;;;7.50;99.90;;;;;;6205984;23;20233;-80
2023/04/08 11:08:04;;;;;;;14.07;9.70;;;7.50;99.90;;;;;;6207033;23;20153;-81
2023/04/08 11:10:35;;;;;;;11.87;9.87;;;7.80;99.90;;;;;;6206582;23;20243;-81
2023/04/08 11:13:01;;;;;;;14.63;11.53;;;8.00;99.90;;;;;;6207810;23;20170;-81
2023/04/08 11:15:29;;;;;;;17.37;13.03;;;7.70;99.90;;;;;;6208316;23;20151;-80
2023/04/08 11:17:55;;;;;;;19.30;13.30;;;7.80;99.90;;;;;;6205519;23;20677;-81
2023/04/08 11:20:21;;;;;;;15.27;11.47;;;7.70;99.90;;;;;;6205723;23;20182;-80
2023/04/08 11:22:47;;;;;;;14.63;11.03;;;7.80;99.90;;;;;;6205942;23;20506;-80
2023/04/08 11:25:13;;;;;;;13.37;10.23;;;7.90;99.90;;;;;;6205791;23;20241;-80
2023/04/08 11:27:39;;;;;;;11.97;10.17;;;8.20;99.90;;;;;;6207652;23;20169;-79
2023/04/08 11:30:06;;;;;;;14.37;10.90;;;8.10;99.90;;;;;;6205153;23;20213;-80
2023/04/08 11:32:34;;;;;;;13.30;10.00;;;8.40;99.90;;;;;;6207341;23;20158;-79
2023/04/08 11:35:01;;;;;;;11.83;10.10;;;8.40;99.90;;;;;;6205784;23;20166;-79
2023/04/08 11:37:35;;;;;;;18.13;13.07;;;8.50;99.90;;;;;;6205677;23;20900;-81
2023/04/08 11:40:01;;;;;;;19.33;13.83;;;8.10;99.90;;;;;;6207031;23;20634;-80
2023/04/08 11:42:28;;;;;;;19.77;14.37;;;7.80;99.90;;;;;;6205576;23;20213;-81
2023/04/08 11:44:54;;;;;;;18.83;13.83;;;7.60;99.90;;;;;;6205487;23;20205;-81
2023/04/08 11:47:20;;;;;;;19.77;14.47;;;7.90;99.90;;;;;;6207792;23;20224;-79
2023/04/08 11:49:46;;;;;;;21.03;15.60;;;8.00;99.90;;;;;;6207110;23;20177;-80
2023/04/08 11:52:12;;;;;;;21.60;15.10;;;8.60;99.90;;;;;;6207298;23;20150;-80
2023/04/08 11:54:42;;;;;;;19.20;14.07;;;7.70;99.90;;;;;;6206819;23;20208;-81
2023/04/08 11:57:08;;;;;;;19.37;13.83;;;7.80;99.90;;;;;;6206942;23;20233;-81
2023/04/08 11:59:37;;;;;;;19.40;14.07;;;8.00;99.90;;;;;;6206687;23;20278;-80
2023/04/08 12:02:03;;;;;;;19.23;14.03;;;7.90;99.90;;;;;;6206015;23;20166;-79
2023/04/08 12:04:29;;;;;;;20.27;14.73;;;7.70;99.90;;;;;;6207632;23;20139;-80
2023/04/08 12:06:55;;;;;;;20.63;14.10;;;7.50;99.90;;;;;;6205506;23;20241;-79
2023/04/08 12:09:21;;;;;;;19.77;15.47;;;7.40;1.00;;;;;;6206983;23;20170;-81
2023/04/08 12:11:47;;;;;;;19.83;15.00;;;7.60;99.90;;;;;;6205513;23;20162;-80
2023/04/08 12:14:13;;;;;;;17.70;14.10;;;7.50;99.90;;;;;;6205663;23;20163;-80
2023/04/08 12:16:39;;;;;;;19.77;14.50;;;7.70;99.90;;;;;;6205787;23;20677;-80
2023/04/08 12:19:04;;;;;;;21.77;14.40;;;7.70;99.90;;;;;;6206515;23;20236;-80
2023/04/08 12:21:31;;;;;;;18.50;13.93;;;7.90;99.90;;;;;;6205563;23;20854;-80
2023/04/08 12:23:57;;;;;;;18.53;14.07;;;8.00;99.90;;;;;;6205038;23;20166;-80
2023/04/08 12:26:23;;;;;;;18.33;13.47;;;8.00;99.90;;;;;;6205480;23;20237;-80
2023/04/08 12:28:48;;;;;;;16.20;13.10;;;8.00;99.90;;;;;;6206576;23;20169;-80
2023/04/08 12:31:14;;;;;;;18.00;14.00;;;8.00;99.90;;;;;;6205556;23;20197;-80
2023/04/08 12:33:40;;;;;;;20.60;14.80;;;8.00;99.90;;;;;;6204945;23;20158;-81
2023/04/08 12:36:05;;;;;;;20.47;15.50;;;7.90;99.90;;;;;;6205758;23;20166;-80
2023/04/08 12:38:32;;;;;;;20.30;14.77;;;7.90;99.90;;;;;;6205205;23;20189;-80
2023/04/08 12:40:58;;;;;;;20.30;15.90;;;7.70;99.90;;;;;;6205191;23;20498;-81
2023/04/08 12:43:24;;;;;;;23.57;16.30;;;7.50;99.90;;;;;;6204922;23;20209;-80